Time;durP1;ratioP1;P1;durP2;ratioP2;P2;SDS_P1;SDS_P2;PMS_P1;PMS_P2;Temp;Humidity;BMP_temperature;BMP_pressure;BME280_temperature;BME280_humidity;BME280_pressure;Samples;Min_cycle;Max_cycle;Signal;HPM_P1;HPM_P2
2023/11/01 00:00:20;;;;;;;4.03;0.82;;;;;;;7.89;100.00;92541.00;2073275;28;20114;-84
2023/11/01 00:01:21;;;;;;;2.92;0.90;;;;;;;7.65;100.00;92541.09;2083725;28;20028;-85
2023/11/01 00:02:22;;;;;;;4.35;0.82;;;;;;;7.65;100.00;92543.75;2088788;28;20429;-86
2023/11/01 00:03:23;;;;;;;2.42;0.80;;;;;;;7.69;100.00;92546.34;2095808;28;20024;-85
2023/11/01 00:04:24;;;;;;;3.78;0.95;;;;;;;7.65;100.00;92546.41;2083935;28;20032;-86
2023/11/01 00:05:25;;;;;;;4.03;1.10;;;;;;;7.74;100.00;92545.88;2075082;28;20076;-84
2023/11/01 00:06:26;;;;;;;7.55;1.23;;;;;;;7.86;100.00;92542.59;2074564;28;20021;-84
2023/11/01 00:07:27;;;;;;;1.80;0.90;;;;;;;7.82;100.00;92541.91;2075058;28;20026;-84
2023/11/01 00:08:28;;;;;;;3.05;0.95;;;;;;;7.70;100.00;92543.28;2073291;28;20029;-85
2023/11/01 00:09:29;;;;;;;3.33;1.17;;;;;;;7.82;100.00;92540.00;2073236;28;20117;-86
2023/11/01 00:10:30;;;;;;;1.75;0.77;;;;;;;7.69;100.00;92533.81;2063738;28;20109;-86
2023/11/01 00:11:31;;;;;;;4.40;0.90;;;;;;;7.63;100.00;92542.66;2076590;28;20071;-86
2023/11/01 00:12:32;;;;;;;4.28;0.90;;;;;;;7.67;100.00;92538.75;2077244;28;20106;-86
2023/11/01 00:13:33;;;;;;;3.50;0.90;;;;;;;7.72;100.00;92538.28;2074661;28;20461;-85
2023/11/01 00:14:34;;;;;;;1.95;0.90;;;;;;;7.63;100.00;92546.06;2085084;28;20024;-86
2023/11/01 00:15:35;;;;;;;3.50;0.90;;;;;;;7.58;100.00;92539.31;2075053;28;20021;-86
2023/11/01 00:16:37;;;;;;;2.95;0.90;;;;;;;7.54;100.00;92535.97;2073436;28;20088;-86
2023/11/01 00:17:39;;;;;;;5.70;1.10;;;;;;;7.51;100.00;92533.41;2082102;28;20017;-86
2023/11/01 00:18:40;;;;;;;3.13;1.00;;;;;;;7.38;100.00;92535.94;2073211;28;20017;-83
2023/11/01 00:19:41;;;;;;;2.35;0.95;;;;;;;7.44;100.00;92539.59;2075296;28;20789;-85
2023/11/01 00:20:42;;;;;;;2.85;1.20;;;;;;;7.46;100.00;92539.97;2065182;28;20026;-86
2023/11/01 00:21:44;;;;;;;3.45;0.80;;;;;;;7.30;100.00;92545.19;2072366;28;20029;-85
2023/11/01 00:22:45;;;;;;;3.08;0.95;;;;;;;7.50;100.00;92545.94;2065009;28;20460;-87
2023/11/01 00:23:47;;;;;;;1.73;0.80;;;;;;;7.51;100.00;92539.47;2066644;28;20110;-86
2023/11/01 00:24:48;;;;;;;1.92;0.90;;;;;;;7.56;100.00;92548.88;2065018;28;20023;-85
2023/11/01 00:25:49;;;;;;;3.40;1.10;;;;;;;7.48;100.00;92545.59;2063687;28;20026;-86
2023/11/01 00:26:50;;;;;;;2.85;0.70;;;;;;;7.37;100.00;92552.28;2071421;28;20028;-85
2023/11/01 00:27:51;;;;;;;3.72;1.02;;;;;;;7.35;100.00;92549.28;2073269;28;20049;-83
2023/11/01 00:28:52;;;;;;;3.05;1.23;;;;;;;7.44;100.00;92547.56;2070839;28;20498;-86
2023/11/01 00:29:53;;;;;;;7.82;1.13;;;;;;;7.42;100.00;92549.13;2079789;28;20104;-86
2023/11/01 00:30:54;;;;;;;1.83;1.10;;;;;;;7.40;100.00;92541.56;2083378;28;20430;-86
2023/11/01 00:31:55;;;;;;;4.25;1.00;;;;;;;7.40;100.00;92543.50;2079695;28;20068;-85
2023/11/01 00:32:56;;;;;;;2.42;0.95;;;;;;;7.50;100.00;92540.63;2083896;28;20029;-85
2023/11/01 00:33:57;;;;;;;3.38;1.08;;;;;;;7.58;100.00;92547.28;2082928;28;20383;-85
2023/11/01 00:34:58;;;;;;;5.88;1.20;;;;;;;7.58;100.00;92538.56;2073183;28;20561;-85
2023/11/01 00:35:58;;;;;;;1.70;0.93;;;;;;;7.56;100.00;92535.59;2072809;28;20025;-87
2023/11/01 00:36:59;;;;;;;4.03;1.00;;;;;;;7.45;100.00;92532.38;2080917;28;20459;-86
2023/11/01 00:38:00;;;;;;;3.65;1.13;;;;;;;7.51;100.00;92533.41;2079513;28;20024;-88
2023/11/01 00:39:02;;;;;;;2.78;1.10;;;;;;;7.63;100.00;92538.09;2083139;28;20133;-86
2023/11/01 00:40:03;;;;;;;4.00;1.02;;;;;;;7.53;100.00;92525.75;2089438;28;20051;-88
2023/11/01 00:41:04;;;;;;;5.80;1.27;;;;;;;7.32;100.00;92530.31;2081176;28;20104;-88
2023/11/01 00:42:05;;;;;;;4.50;1.15;;;;;;;7.29;100.00;92530.41;2081093;28;20104;-84
2023/11/01 00:43:06;;;;;;;2.72;1.85;;;;;;;7.17;100.00;92531.75;2088640;28;20228;-86
2023/11/01 00:44:08;;;;;;;4.05;1.02;;;;;;;7.28;100.00;92528.88;2091382;28;20112;-85
2023/11/01 00:45:09;;;;;;;1.45;0.95;;;;;;;7.29;100.00;92522.44;2089399;28;20035;-86
2023/11/01 00:46:10;;;;;;;3.92;1.20;;;;;;;7.33;100.00;92528.41;2087481;28;20100;-85
2023/11/01 00:47:11;;;;;;;3.53;1.23;;;;;;;7.23;100.00;92524.06;2087301;28;20021;-86
2023/11/01 00:48:20;;;;;;;2.30;1.10;;;;;;;7.29;100.00;92525.09;2087126;28;20033;-87
2023/11/01 00:49:21;;;;;;;3.55;0.90;;;;;;;7.35;100.00;92520.78;2082102;28;20029;-86
2023/11/01 00:50:22;;;;;;;2.55;1.30;;;;;;;7.52;100.00;92527.66;2077711;28;20028;-86
2023/11/01 00:51:23;;;;;;;3.67;1.10;;;;;;;7.51;100.00;92512.88;2087527;28;20021;-87
2023/11/01 00:52:25;;;;;;;4.47;0.82;;;;;;;7.40;100.00;92522.22;2013003;28;23524;-85
2023/11/01 00:53:26;;;;;;;6.35;0.80;;;;;;;7.44;100.00;92514.94;2005354;28;20025;-84
2023/11/01 00:54:27;;;;;;;5.22;1.10;;;;;;;7.30;100.00;92515.97;2003607;28;20026;-84
2023/11/01 00:55:27;;;;;;;1.95;0.75;;;;;;;7.45;100.00;92511.84;2007920;28;20053;-84
2023/11/01 00:56:28;;;;;;;4.68;0.90;;;;;;;7.38;100.00;92511.25;2019199;28;21639;-84
2023/11/01 00:57:29;;;;;;;3.38;1.10;;;;;;;7.50;100.00;92511.38;2033098;28;22549;-86
2023/11/01 00:58:30;;;;;;;2.95;1.10;;;;;;;7.26;100.00;92515.28;2050272;28;20074;-85
2023/11/01 00:59:31;;;;;;;1.77;0.80;;;;;;;7.29;100.00;92514.47;2056174;28;20047;-85
2023/11/01 01:00:32;;;;;;;3.00;1.00;;;;;;;7.18;100.00;92514.66;2041604;28;20072;-86
2023/11/01 01:01:33;;;;;;;2.67;0.85;;;;;;;6.94;100.00;92527.25;2049553;28;20533;-87
2023/11/01 01:02:34;;;;;;;1.00;0.80;;;;;;;6.92;100.00;92518.91;2057807;28;20040;-84
2023/11/01 01:03:35;;;;;;;2.17;0.75;;;;;;;6.94;100.00;92516.63;2071459;28;20125;-85
2023/11/01 01:04:36;;;;;;;1.35;0.68;;;;;;;6.99;100.00;92518.78;2088136;28;20176;-86
2023/11/01 01:05:37;;;;;;;2.45;1.00;;;;;;;6.82;100.00;92517.19;2080914;28;20024;-84
2023/11/01 01:06:38;;;;;;;2.58;0.80;;;;;;;6.90;100.00;92515.19;2081101;28;20076;-86
2023/11/01 01:07:39;;;;;;;5.07;1.08;;;;;;;6.73;100.00;92516.97;2087374;28;20319;-87
2023/11/01 01:08:40;;;;;;;2.20;1.00;;;;;;;6.79;100.00;92521.41;2097398;28;20028;-84
2023/11/01 01:09:41;;;;;;;5.28;1.05;;;;;;;6.81;100.00;92510.41;2084395;28;20025;-87
2023/11/01 01:10:43;;;;;;;1.88;1.67;;;;;;;6.89;100.00;92511.00;2089287;28;20373;-87
2023/11/01 01:11:44;;;;;;;2.20;1.00;;;;;;;6.83;100.00;92508.06;2088628;28;20017;-86
2023/11/01 01:12:44;;;;;;;1.27;0.88;;;;;;;6.74;100.00;92505.19;2086877;28;20048;-85
2023/11/01 01:13:45;;;;;;;3.63;1.05;;;;;;;6.88;100.00;92515.56;2079266;28;20088;-85
2023/11/01 01:14:46;;;;;;;3.30;1.00;;;;;;;6.90;100.00;92510.63;1988616;28;20594;-85
2023/11/01 01:15:47;;;;;;;3.05;1.00;;;;;;;6.89;100.00;92506.47;1985866;28;20491;-84
2023/11/01 01:16:49;;;;;;;2.17;1.00;;;;;;;6.77;100.00;92517.69;2022012;28;22881;-88
2023/11/01 01:17:50;;;;;;;1.25;0.90;;;;;;;6.82;100.00;92514.53;2036018;28;20086;-84
2023/11/01 01:18:51;;;;;;;1.55;0.90;;;;;;;6.93;100.00;92509.03;2029311;28;24007;-84
2023/11/01 01:19:52;;;;;;;2.78;0.90;;;;;;;6.77;100.00;92497.16;2025320;28;20034;-86
2023/11/01 01:20:55;;;;;;;4.88;1.00;;;;;;;6.78;100.00;92505.88;2045110;28;20024;-85
2023/11/01 01:21:55;;;;;;;1.55;0.90;;;;;;;6.65;100.00;92494.34;2058246;28;20043;-83
2023/11/01 01:22:56;;;;;;;0.90;0.80;;;;;;;6.80;100.00;92499.03;2072856;28;20036;-84
2023/11/01 01:23:58;;;;;;;3.28;1.15;;;;;;;6.85;100.00;92492.50;2063011;28;20117;-85
2023/11/01 01:24:59;;;;;;;1.25;0.90;;;;;;;6.88;100.00;92501.53;2069986;28;20037;-85
2023/11/01 01:26:00;;;;;;;3.28;0.82;;;;;;;6.76;100.00;92508.19;2077062;28;20414;-83
2023/11/01 01:27:01;;;;;;;4.50;0.90;;;;;;;6.78;100.00;92503.97;1997159;28;20025;-84
2023/11/01 01:28:02;;;;;;;1.95;0.98;;;;;;;6.65;100.00;92504.97;2003900;28;20029;-86
2023/11/01 01:29:04;;;;;;;5.38;1.30;;;;;;;6.70;100.00;92504.50;2002427;28;20030;-85
2023/11/01 01:30:05;;;;;;;2.33;1.15;;;;;;;6.61;100.00;92506.94;2011943;28;20050;-85
2023/11/01 01:31:06;;;;;;;1.58;1.00;;;;;;;6.69;100.00;92503.75;2016841;28;20067;-85
2023/11/01 01:32:07;;;;;;;2.38;1.20;;;;;;;6.71;100.00;92500.69;2033362;28;20052;-85
2023/11/01 01:33:08;;;;;;;2.47;1.15;;;;;;;6.78;100.00;92503.97;2047172;28;20033;-84
2023/11/01 01:34:09;;;;;;;1.52;1.08;;;;;;;6.69;100.00;92497.69;2053404;28;20103;-85
2023/11/01 01:35:12;;;;;;;2.70;1.30;;;;;;;6.60;100.00;92500.13;2061539;28;20022;-86
2023/11/01 01:36:13;;;;;;;3.00;1.17;;;;;;;6.56;100.00;92492.22;2076327;28;20402;-86
2023/11/01 01:37:14;;;;;;;1.30;1.00;;;;;;;6.59;100.00;92495.97;2076836;28;20037;-86
2023/11/01 01:38:15;;;;;;;2.38;1.05;;;;;;;6.53;100.00;92501.00;2080891;28;20032;-86
2023/11/01 01:39:23;;;;;;;2.15;1.00;;;;;;;6.53;100.00;92493.78;2082632;28;20127;-87
2023/11/01 01:40:24;;;;;;;3.45;1.08;;;;;;;6.42;100.00;92493.22;2073974;28;20390;-86
2023/11/01 01:41:25;;;;;;;1.27;1.02;;;;;;;6.39;100.00;92493.25;2079684;28;20026;-85
2023/11/01 01:42:26;;;;;;;3.88;1.15;;;;;;;6.38;100.00;92495.16;2086620;28;20017;-88
2023/11/01 01:43:27;;;;;;;1.73;1.20;;;;;;;6.37;100.00;92488.38;2086491;28;20021;-86
2023/11/01 01:44:28;;;;;;;2.90;1.00;;;;;;;6.43;100.00;92493.97;2077312;28;20021;-86
2023/11/01 01:45:29;;;;;;;5.22;1.10;;;;;;;6.36;100.00;92489.50;2081053;28;20491;-88
2023/11/01 01:46:30;;;;;;;2.55;0.93;;;;;;;6.34;100.00;92486.50;2087023;28;20048;-85
2023/11/01 01:47:33;;;;;;;2.00;1.02;;;;;;;6.30;100.00;92478.59;2007224;28;22101;-86
2023/11/01 01:48:35;;;;;;;1.52;1.02;;;;;;;6.13;100.00;92478.88;2030433;28;20942;-87
2023/11/01 01:49:36;;;;;;;2.20;1.05;;;;;;;5.97;100.00;92482.13;2025822;28;20024;-86
2023/11/01 01:50:38;;;;;;;2.08;0.80;;;;;;;6.14;100.00;92480.38;2016285;28;22044;-86
2023/11/01 01:51:40;;;;;;;1.27;0.80;;;;;;;5.97;100.00;92488.22;2021875;28;20088;-86
2023/11/01 01:52:41;;;;;;;4.32;1.98;;;;;;;5.99;100.00;92496.50;2042295;28;20056;-85
2023/11/01 01:53:45;;;;;;;1.80;1.00;;;;;;;5.93;100.00;92486.78;2041473;28;20124;-86
2023/11/01 01:54:47;;;;;;;1.50;0.90;;;;;;;5.94;100.00;92482.97;2057011;28;20135;-85
2023/11/01 01:55:48;;;;;;;3.03;1.13;;;;;;;5.93;100.00;92494.72;2075013;28;20422;-85
2023/11/01 01:56:49;;;;;;;1.15;0.90;;;;;;;5.99;100.00;92485.91;2067011;28;20029;-87
2023/11/01 01:57:50;;;;;;;3.22;1.00;;;;;;;5.89;100.00;92480.72;2073178;28;20022;-86
2023/11/01 01:58:52;;;;;;;3.53;1.10;;;;;;;5.96;100.00;92485.94;2086414;28;20017;-87
2023/11/01 01:59:54;;;;;;;4.65;1.17;;;;;;;5.93;100.00;92481.47;2080628;28;20035;-85
2023/11/01 02:00:55;;;;;;;1.80;1.02;;;;;;;5.86;100.00;92479.63;2072832;28;20025;-88
2023/11/01 02:01:57;;;;;;;2.95;1.02;;;;;;;5.86;100.00;92479.63;2072608;28;20018;-87
2023/11/01 02:03:00;;;;;;;3.60;1.10;;;;;;;5.84;100.00;92478.50;2078985;28;20045;-85
2023/11/01 02:04:01;;;;;;;2.15;1.15;;;;;;;5.66;100.00;92471.56;2080417;28;20063;-83
2023/11/01 02:05:06;;;;;;;1.50;1.00;;;;;;;5.53;100.00;92470.59;2072221;28;20628;-86
2023/11/01 02:06:07;;;;;;;2.80;0.95;;;;;;;5.58;100.00;92469.44;2088495;28;20450;-87
2023/11/01 02:07:09;;;;;;;1.90;0.93;;;;;;;5.59;100.00;92470.91;2080149;28;20422;-86
2023/11/01 02:08:10;;;;;;;1.45;1.00;;;;;;;5.54;100.00;92472.88;2087334;28;20452;-86
2023/11/01 02:09:17;;;;;;;1.42;0.73;;;;;;;5.63;100.00;92468.97;2087691;28;20029;-85
2023/11/01 02:10:24;;;;;;;1.58;1.00;;;;;;;5.73;100.00;92471.47;2026685;28;20035;-85
2023/11/01 02:11:25;;;;;;;7.50;1.20;;;;;;;5.74;100.00;92465.00;2010561;28;20025;-88
2023/11/01 02:12:26;;;;;;;1.52;1.10;;;;;;;5.79;100.00;92469.09;2011626;28;20155;-84
2023/11/01 02:13:27;;;;;;;1.35;0.85;;;;;;;5.86;100.00;92458.41;2019349;28;20029;-86
2023/11/01 02:14:28;;;;;;;5.80;1.10;;;;;;;5.98;100.00;92462.44;2037171;28;20036;-87
2023/11/01 02:15:29;;;;;;;3.33;1.08;;;;;;;5.99;100.00;92458.63;2032853;28;21512;-83
2023/11/01 02:16:30;;;;;;;3.05;0.80;;;;;;;5.99;100.00;92461.28;2034189;28;20030;-86
2023/11/01 02:17:31;;;;;;;3.45;1.20;;;;;;;6.05;100.00;92457.75;2064602;28;20031;-85
2023/11/01 02:18:32;;;;;;;2.20;0.85;;;;;;;5.87;100.00;92457.25;2066727;28;20033;-86
2023/11/01 02:19:33;;;;;;;1.65;0.82;;;;;;;6.01;100.00;92451.78;2075916;28;20028;-85
2023/11/01 02:20:36;;;;;;;6.07;1.13;;;;;;;5.98;100.00;92455.22;2072479;28;20085;-85
2023/11/01 02:21:37;;;;;;;1.13;0.90;;;;;;;6.04;100.00;92456.25;2086866;28;20014;-84
2023/11/01 02:22:38;;;;;;;3.60;1.00;;;;;;;6.13;100.00;92455.00;2078856;28;20093;-85
2023/11/01 02:23:40;;;;;;;2.13;1.08;;;;;;;6.05;100.00;92452.44;2089564;28;20021;-84
2023/11/01 02:24:41;;;;;;;4.25;1.10;;;;;;;6.00;100.00;92449.50;2088487;28;20427;-87
2023/11/01 02:25:43;;;;;;;3.78;1.23;;;;;;;6.10;100.00;92447.84;2079410;28;20059;-85
2023/11/01 02:26:44;;;;;;;3.67;1.05;;;;;;;6.01;100.00;92445.69;2088673;28;20016;-86
2023/11/01 02:27:46;;;;;;;2.40;0.90;;;;;;;6.08;100.00;92445.59;2087517;28;20017;-86
2023/11/01 02:28:47;;;;;;;2.38;1.00;;;;;;;6.24;100.00;92444.97;2095339;28;20025;-84
2023/11/01 02:29:48;;;;;;;1.60;0.90;;;;;;;6.23;100.00;92448.75;2089074;28;20485;-85
2023/11/01 02:31:04;;;;;;;2.92;1.13;;;;;;;6.13;100.00;92442.47;2075408;28;20030;-85
2023/11/01 02:32:08;;;;;;;3.65;1.15;;;;;;;6.13;100.00;92441.72;2084314;28;20327;-86
2023/11/01 02:33:09;;;;;;;3.22;0.90;;;;;;;6.21;100.00;92433.25;2080147;28;20022;-84
2023/11/01 02:34:09;;;;;;;1.05;0.90;;;;;;;6.17;100.00;92440.53;2078510;28;20096;-86
2023/11/01 02:35:10;;;;;;;1.13;0.73;;;;;;;6.08;100.00;92439.53;2082021;28;20024;-84
2023/11/01 02:36:11;;;;;;;1.02;0.77;;;;;;;6.22;100.00;92429.44;2072258;28;20022;-87
2023/11/01 02:37:12;;;;;;;3.35;0.77;;;;;;;6.08;100.00;92435.00;2078488;28;20025;-85
2023/11/01 02:38:14;;;;;;;4.22;0.85;;;;;;;5.99;100.00;92432.09;2088432;28;20083;-85
2023/11/01 02:39:15;;;;;;;2.05;0.90;;;;;;;6.09;100.00;92436.47;2094265;28;20041;-84
2023/11/01 02:40:17;;;;;;;1.92;0.90;;;;;;;6.14;100.00;92432.63;2095905;28;20055;-86
2023/11/01 02:41:18;;;;;;;4.57;0.98;;;;;;;5.99;100.00;92426.78;2085981;28;20024;-85
2023/11/01 02:42:19;;;;;;;2.78;1.00;;;;;;;5.98;100.00;92428.69;2079517;28;20032;-85
2023/11/01 02:43:20;;;;;;;2.50;1.10;;;;;;;5.80;100.00;92420.25;2040424;28;20081;-82
2023/11/01 02:44:21;;;;;;;1.38;0.90;;;;;;;5.75;100.00;92425.97;2015409;28;20024;-83
2023/11/01 02:45:22;;;;;;;3.13;1.10;;;;;;;5.53;100.00;92431.63;2019802;28;20032;-88
2023/11/01 02:46:23;;;;;;;1.00;0.90;;;;;;;5.62;100.00;92430.34;2006534;28;20160;-87
2023/11/01 02:47:24;;;;;;;5.03;0.80;;;;;;;5.74;100.00;92421.84;2028261;28;20040;-85
2023/11/01 02:48:25;;;;;;;1.15;0.80;;;;;;;5.72;100.00;92424.91;2032782;28;20060;-85
2023/11/01 02:49:27;;;;;;;1.92;0.95;;;;;;;5.64;100.00;92410.25;2055716;28;20020;-86
2023/11/01 02:50:28;;;;;;;1.38;0.90;;;;;;;5.56;100.00;92422.09;2068130;28;20106;-85
2023/11/01 02:51:31;;;;;;;2.00;0.90;;;;;;;5.58;100.00;92425.09;2070108;28;20029;-85
2023/11/01 02:52:33;;;;;;;1.40;0.90;;;;;;;5.61;100.00;92420.88;2076177;28;20021;-87
2023/11/01 02:53:33;;;;;;;0.90;0.85;;;;;;;5.64;100.00;92417.44;2073254;28;20451;-86
2023/11/01 02:54:37;;;;;;;1.38;0.70;;;;;;;5.63;100.00;92422.00;2080051;28;20021;-86
2023/11/01 02:55:38;;;;;;;2.53;0.90;;;;;;;5.33;100.00;92424.69;2071422;28;20014;-86
2023/11/01 02:56:39;;;;;;;2.80;0.90;;;;;;;5.40;100.00;92427.22;2069676;28;20020;-87
2023/11/01 02:57:42;;;;;;;1.77;0.70;;;;;;;5.43;100.00;92419.25;2070251;28;20018;-86
2023/11/01 02:58:43;;;;;;;1.88;0.90;;;;;;;5.46;100.00;92426.41;2087924;28;20115;-86
2023/11/01 02:59:44;;;;;;;1.13;0.63;;;;;;;5.52;100.00;92426.69;2086474;28;20021;-86
2023/11/01 03:00:45;;;;;;;1.60;1.00;;;;;;;5.43;100.00;92421.88;2079803;28;20033;-86
2023/11/01 03:01:46;;;;;;;8.27;1.55;;;;;;;5.29;100.00;92430.03;2084993;28;20067;-85
2023/11/01 03:02:48;;;;;;;0.90;0.90;;;;;;;5.38;100.00;92421.59;2087894;28;20025;-85
2023/11/01 03:03:49;;;;;;;2.83;1.30;;;;;;;5.26;100.00;92422.88;2019754;28;20512;-87
2023/11/01 03:04:50;;;;;;;2.15;0.95;;;;;;;5.30;100.00;92416.38;2007925;28;20029;-84
2023/11/01 03:05:51;;;;;;;2.38;1.05;;;;;;;5.30;100.00;92423.59;2008643;28;20072;-84
2023/11/01 03:06:52;;;;;;;4.32;0.90;;;;;;;5.22;100.00;92422.16;2014024;28;20034;-86
2023/11/01 03:07:54;;;;;;;2.15;0.73;;;;;;;5.23;100.00;92413.84;2024807;28;20113;-83
2023/11/01 03:08:55;;;;;;;1.20;0.90;;;;;;;5.24;100.00;92422.53;2030340;28;20040;-86
2023/11/01 03:09:56;;;;;;;1.30;0.60;;;;;;;5.10;100.00;92431.41;2038233;28;20055;-85
2023/11/01 03:10:56;;;;;;;1.80;0.70;;;;;;;5.46;100.00;92423.75;2039178;28;20033;-82
2023/11/01 03:12:06;;;;;;;1.13;0.80;;;;;;;5.42;100.00;92427.59;2057035;28;20521;-85
2023/11/01 03:13:07;;;;;;;1.45;0.80;;;;;;;5.41;100.00;92426.84;2069793;28;20128;-86
2023/11/01 03:14:08;;;;;;;3.53;0.90;;;;;;;5.35;100.00;92428.44;2075674;28;20050;-85
2023/11/01 03:15:11;;;;;;;1.60;0.82;;;;;;;5.13;100.00;92420.00;2076828;28;20049;-86
2023/11/01 03:16:12;;;;;;;1.70;0.80;;;;;;;5.07;100.00;92434.84;2087033;28;20053;-85
2023/11/01 03:17:13;;;;;;;0.80;0.80;;;;;;;5.03;100.00;92426.94;2079976;28;20032;-84
2023/11/01 03:18:14;;;;;;;1.40;1.00;;;;;;;4.82;100.00;92426.44;2077397;28;20065;-85
2023/11/01 03:19:15;;;;;;;0.98;0.70;;;;;;;4.90;100.00;92427.88;2078599;28;20506;-86
2023/11/01 03:20:16;;;;;;;2.28;0.80;;;;;;;4.99;100.00;92422.84;1991557;28;22005;-86
2023/11/01 03:21:17;;;;;;;1.77;0.75;;;;;;;4.91;100.00;92424.06;1989917;28;20034;-84
2023/11/01 03:22:19;;;;;;;5.85;1.30;;;;;;;4.85;100.00;92425.66;2017316;28;20082;-84
2023/11/01 03:23:20;;;;;;;1.52;0.90;;;;;;;4.84;100.00;92424.91;2025950;28;21070;-84
2023/11/01 03:24:21;;;;;;;1.85;0.80;;;;;;;5.04;100.00;92417.09;2022429;28;20025;-85
2023/11/01 03:25:23;;;;;;;2.25;1.05;;;;;;;5.04;100.00;92425.78;2030026;28;20021;-85
2023/11/01 03:26:24;;;;;;;1.48;1.00;;;;;;;4.89;100.00;92413.88;2036607;28;20029;-86
2023/11/01 03:27:25;;;;;;;1.30;1.15;;;;;;;4.89;100.00;92413.13;2061253;28;20138;-85
2023/11/01 03:28:26;;;;;;;3.03;1.50;;;;;;;4.95;100.00;92416.84;2059895;28;20080;-85
2023/11/01 03:29:27;;;;;;;2.55;1.20;;;;;;;5.02;100.00;92414.84;2078169;28;20031;-85
2023/11/01 03:30:28;;;;;;;1.67;1.20;;;;;;;4.93;100.00;92417.25;2079883;28;20373;-85
2023/11/01 03:31:29;;;;;;;2.28;1.48;;;;;;;4.92;100.00;92412.34;2094084;28;20028;-83
2023/11/01 03:32:29;;;;;;;1.77;1.55;;;;;;;4.90;100.00;92410.06;2081399;28;20018;-86
2023/11/01 03:33:30;;;;;;;2.03;1.75;;;;;;;4.89;100.00;92405.94;2073536;28;20026;-85
2023/11/01 03:34:31;;;;;;;2.08;1.80;;;;;;;4.83;100.00;92410.19;2073648;28;20022;-87
2023/11/01 03:35:32;;;;;;;1.55;1.45;;;;;;;4.93;100.00;92404.00;2075609;28;20052;-85
2023/11/01 03:36:34;;;;;;;3.40;1.65;;;;;;;4.91;100.00;92405.53;2084298;28;20021;-86
2023/11/01 03:37:35;;;;;;;5.85;1.58;;;;;;;4.96;100.00;92405.09;2089996;28;20013;-85
2023/11/01 03:38:37;;;;;;;4.60;1.90;;;;;;;4.96;100.00;92408.50;2077972;28;20432;-87
2023/11/01 03:39:38;;;;;;;1.50;1.40;;;;;;;4.96;100.00;92407.72;2081628;28;20053;-86
2023/11/01 03:40:39;;;;;;;2.97;1.70;;;;;;;4.91;100.00;92403.63;2089895;28;20103;-86
2023/11/01 03:41:40;;;;;;;4.53;2.00;;;;;;;4.99;100.00;92413.00;2089782;28;20699;-86
2023/11/01 03:42:41;;;;;;;2.38;1.95;;;;;;;4.96;100.00;92413.03;2095634;28;20021;-86
2023/11/01 03:43:43;;;;;;;4.78;2.03;;;;;;;4.99;100.00;92410.34;2089107;28;20032;-85
2023/11/01 03:44:44;;;;;;;1.77;1.67;;;;;;;4.98;100.00;92411.50;2089827;28;20025;-88
2023/11/01 03:45:45;;;;;;;2.58;2.00;;;;;;;4.98;100.00;92408.09;2097742;28;20512;-86
2023/11/01 03:46:46;;;;;;;2.55;1.90;;;;;;;5.09;100.00;92413.25;2081493;28;20075;-88
2023/11/01 03:47:47;;;;;;;4.25;1.92;;;;;;;4.86;100.00;92405.97;2065375;28;20041;-85
2023/11/01 03:48:50;;;;;;;2.03;1.73;;;;;;;4.99;100.00;92406.94;2083833;28;20052;-85
2023/11/01 03:49:51;;;;;;;3.60;1.50;;;;;;;4.95;100.00;92403.59;2087526;28;20037;-87
2023/11/01 03:50:52;;;;;;;2.65;1.60;;;;;;;5.00;100.00;92406.56;2082082;28;20018;-88
2023/11/01 03:51:53;;;;;;;2.22;1.45;;;;;;;5.03;100.00;92400.47;2078952;28;20108;-88
2023/11/01 03:52:55;;;;;;;1.63;1.50;;;;;;;4.98;100.00;92394.88;2080080;28;20025;-87
2023/11/01 03:53:57;;;;;;;1.95;1.70;;;;;;;4.98;100.00;92392.97;2086471;28;20425;-86
2023/11/01 03:54:58;;;;;;;2.17;1.98;;;;;;;4.93;100.00;92396.06;2082552;28;20162;-85
2023/11/01 03:55:58;;;;;;;3.17;1.65;;;;;;;4.93;100.00;92400.59;2077349;28;20523;-84
2023/11/01 03:57:01;;;;;;;3.13;1.60;;;;;;;5.00;100.00;92392.56;2083821;28;20088;-86
2023/11/01 03:58:02;;;;;;;5.03;1.98;;;;;;;4.95;100.00;92393.75;2089652;28;20028;-87
2023/11/01 03:59:03;;;;;;;1.90;1.58;;;;;;;4.89;100.00;92384.75;2075723;28;20018;-85
2023/11/01 04:00:05;;;;;;;4.35;1.67;;;;;;;4.77;100.00;92382.63;2089214;28;20080;-87
2023/11/01 04:01:06;;;;;;;2.90;1.70;;;;;;;4.76;100.00;92375.84;2077800;28;20021;-86
2023/11/01 04:02:07;;;;;;;2.28;1.83;;;;;;;4.84;100.00;92381.81;2063877;28;20506;-85
2023/11/01 04:03:08;;;;;;;5.07;1.80;;;;;;;4.64;100.00;92374.44;2065081;28;20050;-85
2023/11/01 04:04:09;;;;;;;2.80;1.77;;;;;;;4.80;100.00;92372.00;2081049;28;20548;-87
2023/11/01 04:05:10;;;;;;;1.95;1.77;;;;;;;4.80;100.00;92373.91;2079629;28;20022;-86
2023/11/01 04:06:11;;;;;;;1.80;1.70;;;;;;;4.74;100.00;92367.53;2081389;28;20072;-88
2023/11/01 04:07:12;;;;;;;2.08;1.52;;;;;;;4.70;100.00;92364.94;2073405;28;20572;-84
2023/11/01 04:08:13;;;;;;;1.50;1.40;;;;;;;4.72;100.00;92370.56;2065204;28;20837;-86
2023/11/01 04:09:14;;;;;;;2.58;1.58;;;;;;;4.78;100.00;92369.00;2073618;28;20045;-86
2023/11/01 04:10:16;;;;;;;3.72;1.60;;;;;;;4.86;100.00;92366.25;2073410;28;20029;-86
2023/11/01 04:11:17;;;;;;;2.70;1.80;;;;;;;4.93;100.00;92369.56;2081679;28;20045;-86
2023/11/01 04:12:18;;;;;;;1.60;1.50;;;;;;;4.94;100.00;92375.63;2089815;28;20016;-85
2023/11/01 04:13:19;;;;;;;2.38;1.58;;;;;;;4.88;100.00;92362.06;2072993;28;20313;-87
2023/11/01 04:14:20;;;;;;;2.90;2.00;;;;;;;4.96;100.00;92357.41;2075639;28;20052;-85
2023/11/01 04:15:21;;;;;;;2.08;1.77;;;;;;;4.97;100.00;92361.59;2074433;28;20021;-85
2023/11/01 04:16:22;;;;;;;3.22;1.80;;;;;;;4.95;100.00;92358.56;2079357;28;20022;-86
2023/11/01 04:17:23;;;;;;;2.10;1.90;;;;;;;4.99;100.00;92361.94;2076640;28;20022;-87
2023/11/01 04:18:25;;;;;;;1.70;1.60;;;;;;;4.99;100.00;92352.09;2063461;28;20094;-85
2023/11/01 04:19:26;;;;;;;3.15;1.73;;;;;;;5.12;100.00;92356.84;2075904;28;20044;-84
2023/11/01 04:20:27;;;;;;;2.20;1.92;;;;;;;4.92;100.00;92354.84;2075534;28;20018;-87
2023/11/01 04:21:28;;;;;;;4.68;1.70;;;;;;;4.82;100.00;92349.66;2068330;28;20558;-86
2023/11/01 04:22:29;;;;;;;1.85;1.70;;;;;;;4.80;100.00;92348.16;2072950;28;20026;-87
2023/11/01 04:23:30;;;;;;;2.55;1.67;;;;;;;5.01;100.00;92341.09;2065809;28;20029;-88
2023/11/01 04:24:31;;;;;;;2.60;1.90;;;;;;;5.04;100.00;92341.03;2080115;28;20024;-86
2023/11/01 04:25:32;;;;;;;3.25;2.10;;;;;;;4.92;100.00;92341.59;2091858;28;20022;-85
2023/11/01 04:26:33;;;;;;;2.72;1.88;;;;;;;5.06;100.00;92340.66;2080599;28;20041;-89
2023/11/01 04:27:39;;;;;;;2.45;1.98;;;;;;;5.13;100.00;92329.19;2080844;28;20017;-87
2023/11/01 04:28:40;;;;;;;2.80;1.88;;;;;;;5.22;100.00;92334.75;2081413;28;20026;-85
2023/11/01 04:29:41;;;;;;;1.70;1.60;;;;;;;5.03;100.00;92331.59;2073066;28;20017;-85
2023/11/01 04:30:43;;;;;;;2.38;2.17;;;;;;;4.95;100.00;92340.78;2081139;28;20017;-86
2023/11/01 04:31:44;;;;;;;6.10;1.98;;;;;;;5.05;100.00;92328.56;2087595;28;20692;-87
2023/11/01 04:32:45;;;;;;;2.60;1.80;;;;;;;5.14;100.00;92328.06;2084417;28;20025;-85
2023/11/01 04:33:46;;;;;;;2.33;1.80;;;;;;;5.02;100.00;92332.75;2066953;28;20032;-84
2023/11/01 04:34:50;;;;;;;2.92;1.88;;;;;;;5.04;100.00;92327.78;2072773;28;20408;-86
2023/11/01 04:35:53;;;;;;;2.30;2.10;;;;;;;4.93;100.00;92332.50;2089944;28;20061;-87
2023/11/01 04:36:55;;;;;;;2.40;2.20;;;;;;;4.86;100.00;92334.47;2089637;28;20478;-86
2023/11/01 04:37:56;;;;;;;2.13;1.92;;;;;;;4.91;100.00;92337.44;2091651;28;20107;-87
2023/11/01 04:38:58;;;;;;;2.72;2.20;;;;;;;4.87;100.00;92336.72;2087828;28;20034;-88
2023/11/01 04:39:59;;;;;;;2.58;2.38;;;;;;;4.83;100.00;92336.03;2074784;28;20099;-87
2023/11/01 04:40:59;;;;;;;5.18;2.30;;;;;;;4.73;100.00;92337.66;2064126;28;20042;-87
2023/11/01 04:42:04;;;;;;;2.30;2.10;;;;;;;5.13;100.00;92331.84;2060874;28;20467;-87
2023/11/01 04:43:05;;;;;;;2.30;2.10;;;;;;;5.14;100.00;92320.88;2062645;28;20030;-86
2023/11/01 04:44:06;;;;;;;5.05;2.60;;;;;;;5.01;100.00;92335.81;2064639;28;20066;-88
2023/11/01 04:45:09;;;;;;;2.40;2.20;;;;;;;4.99;100.00;92333.53;2071430;28;20022;-87
2023/11/01 04:46:10;;;;;;;2.15;2.00;;;;;;;4.91;100.00;92334.78;2075237;28;20029;-87
2023/11/01 04:47:12;;;;;;;2.78;1.95;;;;;;;4.86;100.00;92335.22;2075268;28;20513;-87
2023/11/01 04:48:13;;;;;;;2.35;1.98;;;;;;;4.88;100.00;92329.56;2080971;28;20021;-85
2023/11/01 04:49:14;;;;;;;1.92;1.83;;;;;;;4.79;100.00;92327.41;2078350;28;20025;-84